Scarborough, Maine
Current Conditions -  °F | °C
As of 3:51 PM on Friday 19 Dec 2014 (Local Time) from KPWM Reporting Station
Clear Clear  
Wind Chill: 30°   Ceiling: Unl
Heat Index: 36°   Visibility: 10mi
Dew Point: 22°   Wind: 7mph
Humidity: 57%   Direction: 340°NNW
Pressure: 29.97"   Gusts: NA
Location:  43.6°N, 70.33°W
Report Text: KPWM 192051Z 34006KT 10SM CLR 02/M06 A2997 RMK AO2 SLP150 T00221056 53017
Loading
Personal Weather Stations






























Interactive Weather Map New forecast layout! Learn more

10-Day Weather Forecast

Advertisements
Track Severe Weather on mobile